createdAt,value
2022-09-23T00:02:04.042Z,98888.03
2022-09-23T00:04:37.414Z,98888.91
2022-09-23T00:07:10.873Z,98889.81
2022-09-23T00:09:44.221Z,98883.72
2022-09-23T00:12:18.248Z,98891.56
2022-09-23T00:14:51.528Z,98895.06
2022-09-23T00:17:24.818Z,98894.18
2022-09-23T00:19:58.045Z,98888.96
2022-09-23T00:22:31.302Z,98897.66
2022-09-23T00:25:05.005Z,98884.61
2022-09-23T00:27:38.871Z,98888.94
2022-09-23T00:30:13.445Z,98890.68
2022-09-23T00:32:46.683Z,98892.41
2022-09-23T00:35:20.230Z,98896.77
2022-09-23T00:37:53.678Z,98896.73
2022-09-23T00:40:27.017Z,98897.61
2022-09-23T00:43:00.411Z,98901.97
2022-09-23T00:45:33.635Z,98895.84
2022-09-23T00:48:07.682Z,98897.57
2022-09-23T00:50:43.807Z,98895.84
2022-09-23T00:53:21.370Z,98894.08
2022-09-23T00:55:57.782Z,98897.55
2022-09-23T00:58:34.515Z,98890.56
2022-09-23T01:01:08.147Z,98901.03
2022-09-23T01:03:41.907Z,98900.16
2022-09-23T01:06:15.938Z,98899.27
2022-09-23T01:08:50.254Z,98901.02
2022-09-23T01:11:41.574Z,98902.76
2022-09-23T01:17:25.927Z,98907.05
2022-09-23T01:20:41.927Z,98905.39
2022-09-23T01:23:32.357Z,98911.48
2022-09-23T01:26:14.041Z,98905.38
2022-09-23T01:29:06.136Z,98902.77
2022-09-23T01:31:43.013Z,98897.53
2022-09-23T01:34:19.116Z,98904.52
2022-09-23T01:36:55.285Z,98897.56
2022-09-23T01:39:31.557Z,98892.30
2022-09-23T01:42:08.647Z,98898.39
2022-09-23T01:44:46.534Z,98895.75
2022-09-23T01:47:19.695Z,98904.48
2022-09-23T01:49:55.605Z,98900.97
2022-09-23T01:52:32.861Z,98900.12
2022-09-23T01:55:09.243Z,98913.22
2022-09-23T01:57:45.386Z,98908.00
2022-09-23T02:00:22.506Z,98914.08
2022-09-23T02:02:59.514Z,98911.44
2022-09-23T02:05:35.821Z,98911.44
2022-09-23T02:08:12.180Z,98907.95
2022-09-23T02:10:48.467Z,98903.59
2022-09-23T02:13:25.149Z,98907.94
2022-09-23T02:16:02.247Z,98900.95
2022-09-23T02:18:38.300Z,98907.07
2022-09-23T02:21:12.835Z,98913.16
2022-09-23T02:23:50.591Z,98911.44
2022-09-23T02:26:27.459Z,98902.69
2022-09-23T02:29:04.693Z,98904.47
2022-09-23T02:31:42.638Z,98908.84
2022-09-23T02:34:19.737Z,98908.84
2022-09-23T02:36:57.919Z,98901.86
2022-09-23T02:39:34.759Z,98907.13
2022-09-23T02:42:10.980Z,98909.77
2022-09-23T02:44:44.187Z,98906.28
2022-09-23T02:47:17.836Z,98898.42
2022-09-23T02:49:50.900Z,98901.92
2022-09-23T02:52:25.108Z,98907.99
2022-09-23T02:54:59.003Z,98904.50
2022-09-23T02:57:34.216Z,98905.38
2022-09-23T03:00:30.355Z,98901.87
2022-09-23T03:03:13.851Z,98898.38
2022-09-23T03:05:47.139Z,98894.04
2022-09-23T03:08:32.448Z,98890.50
2022-09-23T03:11:08.808Z,98900.16
2022-09-23T03:13:51.213Z,98898.42
2022-09-23T03:16:30.710Z,98887.09
2022-09-23T03:19:08.170Z,98899.27
2022-09-23T03:21:45.048Z,98905.35
2022-09-23T03:24:19.974Z,98900.98
2022-09-23T03:26:55.281Z,98902.73
2022-09-23T03:29:29.774Z,98906.20
2022-09-23T03:32:03.440Z,98906.20
2022-09-23T03:34:39.843Z,98898.35
2022-09-23T03:37:18.142Z,98901.83
2022-09-23T03:39:54.441Z,98907.94
2022-09-23T03:42:30.886Z,98899.20
2022-09-23T03:45:09.369Z,98899.16
2022-09-23T03:47:42.546Z,98901.80
2022-09-23T03:50:17.539Z,98908.75
2022-09-23T03:52:50.730Z,98897.40
2022-09-23T03:55:24.167Z,98904.37
2022-09-23T03:57:57.309Z,98895.63
2022-09-23T04:00:30.635Z,98898.25
2022-09-23T04:03:09.526Z,98892.14
2022-09-23T04:05:40.294Z,98893.85
2022-09-23T04:08:13.569Z,98892.08
2022-09-23T04:10:50.707Z,98887.72
2022-09-23T04:13:23.788Z,98892.94
2022-09-23T04:16:00.511Z,98891.20
2022-09-23T04:18:34.300Z,98893.76
2022-09-23T04:21:07.837Z,98880.64
2022-09-23T04:23:42.113Z,98881.50
2022-09-23T04:26:15.475Z,98884.98
2022-09-23T04:28:48.868Z,98884.09
2022-09-23T04:31:25.057Z,98884.11
2022-09-23T04:33:58.946Z,98877.07
2022-09-23T04:36:33.050Z,98871.81
2022-09-23T04:39:06.669Z,98862.24
2022-09-23T04:41:40.112Z,98865.77
2022-09-23T04:44:16.132Z,98874.50
2022-09-23T04:46:52.934Z,98880.63
2022-09-23T04:49:27.120Z,98871.88
2022-09-23T04:52:03.478Z,98865.70
2022-09-23T04:54:39.193Z,98867.38
2022-09-23T04:57:12.309Z,98858.50
2022-09-23T04:59:45.365Z,98858.45
2022-09-23T05:02:18.676Z,98856.68
2022-09-23T05:04:52.165Z,98834.82
2022-09-23T05:07:25.306Z,98824.42
2022-09-23T05:09:58.524Z,98834.95
2022-09-23T05:12:34.158Z,98835.80
2022-09-23T05:15:08.756Z,98830.45
2022-09-23T05:17:43.010Z,98835.58
2022-09-23T05:20:16.202Z,98835.48
2022-09-23T05:22:49.386Z,98844.89
2022-09-23T05:25:25.726Z,98838.59
2022-09-23T05:28:00.252Z,98846.25
2022-09-23T05:30:33.585Z,98851.98
2022-09-23T05:33:07.113Z,98850.64
2022-09-23T05:35:44.154Z,98830.25
2022-09-23T05:38:17.904Z,98850.97
2022-09-23T05:40:57.858Z,98836.62
2022-09-23T05:43:32.723Z,98848.41
2022-09-23T05:46:09.924Z,98851.01
2022-09-23T05:48:45.987Z,98840.81
2022-09-23T05:51:20.758Z,98832.19
2022-09-23T05:53:55.111Z,98835.87
2022-09-23T05:56:29.963Z,98829.87
2022-09-23T05:59:04.718Z,98815.27
2022-09-23T06:01:38.879Z,98828.70
2022-09-23T06:04:15.188Z,98841.36
2022-09-23T06:06:49.321Z,98851.27
2022-09-23T06:09:22.360Z,98855.81
2022-09-23T06:11:56.089Z,98863.92
2022-09-23T06:14:29.289Z,98867.59
2022-09-23T06:17:02.542Z,98867.47
2022-09-23T06:19:35.677Z,98870.73
2022-09-23T06:22:08.753Z,98874.06
2022-09-23T06:24:41.890Z,98868.99
2022-09-23T06:27:14.964Z,98859.71
2022-09-23T06:29:48.046Z,98858.00
2022-09-23T06:32:21.437Z,98866.73
2022-09-23T06:34:54.576Z,98863.98
2022-09-23T06:37:28.021Z,98872.00
2022-09-23T06:40:01.063Z,98877.25
2022-09-23T06:42:34.606Z,98877.31
2022-09-23T06:45:10.705Z,98883.45
2022-09-23T06:47:44.533Z,98883.30
2022-09-23T06:50:18.103Z,98887.52
2022-09-23T06:52:56.559Z,98894.24
2022-09-23T06:55:31.779Z,98901.12
2022-09-23T06:58:06.918Z,98900.16
2022-09-23T07:00:52.821Z,98894.97
2022-09-23T07:03:41.042Z,98890.59
2022-09-23T07:06:14.965Z,98879.97
2022-09-23T07:08:50.422Z,98872.22
2022-09-23T07:11:24.032Z,98873.03
2022-09-23T07:13:58.162Z,98879.05
2022-09-23T07:16:33.347Z,98869.31
2022-09-23T07:19:09.024Z,98867.92
2022-09-23T07:21:43.660Z,98862.45
2022-09-23T07:24:39.163Z,98850.63
2022-09-23T07:27:14.555Z,98851.02
2022-09-23T07:29:49.043Z,98856.22
2022-09-23T07:32:24.109Z,98863.34
2022-09-23T07:34:57.841Z,98861.47
2022-09-23T07:37:33.122Z,98867.21
2022-09-23T07:40:08.159Z,98869.41
2022-09-23T07:42:42.002Z,98866.75
2022-09-23T07:45:16.447Z,98863.94
2022-09-23T07:47:50.224Z,98864.77
2022-09-23T07:50:24.332Z,98861.84
2022-09-23T07:52:57.501Z,98859.72
2022-09-23T07:55:31.158Z,98863.66
2022-09-23T07:58:04.482Z,98861.22
2022-09-23T08:00:38.155Z,98860.06
2022-09-23T08:03:12.186Z,98860.91
2022-09-23T08:05:46.905Z,98858.02
2022-09-23T08:08:20.134Z,98859.44
2022-09-23T08:10:53.445Z,98857.42
2022-09-23T08:13:26.696Z,98857.98
2022-09-23T08:16:00.249Z,98856.44
2022-09-23T08:18:33.722Z,98854.39
2022-09-23T08:21:07.583Z,98849.34
2022-09-23T08:23:42.971Z,98851.72
2022-09-23T08:26:21.791Z,98845.30
2022-09-23T08:28:53.456Z,98852.23
2022-09-23T08:31:27.602Z,98848.27
2022-09-23T08:34:01.782Z,98846.08
2022-09-23T08:36:36.882Z,98844.51
2022-09-23T08:39:16.646Z,98844.55
2022-09-23T08:41:59.289Z,98837.23
2022-09-23T08:44:38.027Z,98833.75
2022-09-23T08:47:15.436Z,98829.02
2022-09-23T08:49:55.769Z,98827.36
2022-09-23T08:52:36.322Z,98838.24
2022-09-23T08:55:15.095Z,98836.06
2022-09-23T08:58:13.995Z,98834.59
2022-09-23T09:00:31.767Z,98825.11
2022-09-23T09:03:09.852Z,98826.72
2022-09-23T09:05:53.777Z,98829.70
2022-09-23T09:08:24.835Z,98837.34
2022-09-23T09:10:59.319Z,98839.22
2022-09-23T09:19:56.856Z,98855.80
2022-09-23T09:22:39.927Z,98849.91
2022-09-23T09:25:33.431Z,98843.26
2022-09-23T09:28:04.748Z,98836.05
2022-09-23T09:30:37.894Z,98821.72
2022-09-23T09:33:15.301Z,98819.25
2022-09-23T09:36:16.451Z,98827.48
2022-09-23T09:38:51.210Z,98823.97
2022-09-23T09:41:25.574Z,98819.22
2022-09-23T09:43:59.583Z,98813.16
2022-09-23T09:46:46.013Z,98818.38
2022-09-23T09:52:23.890Z,98800.48
2022-09-23T09:54:58.771Z,98797.90
2022-09-23T09:57:36.216Z,98803.92
2022-09-23T10:00:22.449Z,98808.59
2022-09-23T10:02:58.837Z,98810.09
2022-09-23T10:05:35.455Z,98813.38
2022-09-23T10:08:26.661Z,98821.83
2022-09-23T10:11:05.803Z,98816.98
2022-09-23T10:13:38.703Z,98789.44
2022-09-23T10:16:12.420Z,98785.27
2022-09-23T10:18:55.063Z,98783.29
2022-09-23T10:21:31.343Z,98785.28
2022-09-23T10:24:07.224Z,98777.05
2022-09-23T10:26:44.205Z,98788.77
2022-09-23T10:29:28.888Z,98791.89
2022-09-23T10:35:26.788Z,98805.11
2022-09-23T10:38:01.476Z,98810.88
2022-09-23T10:40:55.325Z,98794.33
2022-09-23T10:43:52.819Z,98813.03
2022-09-23T10:46:42.260Z,98821.02
2022-09-23T10:52:51.063Z,98819.70
2022-09-23T10:56:01.444Z,98822.48
2022-09-23T10:58:52.822Z,98806.10
2022-09-23T11:01:33.537Z,98795.56
2022-09-23T11:04:27.769Z,98774.66
2022-09-23T11:07:20.820Z,98771.83
2022-09-23T11:10:04.014Z,98774.82
2022-09-23T11:12:41.311Z,98758.82
2022-09-23T11:15:23.272Z,98760.86
2022-09-23T11:18:19.096Z,98764.55
2022-09-23T11:20:58.580Z,98753.20
2022-09-23T11:23:41.962Z,98764.17
2022-09-23T11:26:23.533Z,98765.36
2022-09-23T11:29:45.639Z,98757.08
2022-09-23T11:32:47.101Z,98748.29
2022-09-23T11:35:22.925Z,98738.06
2022-09-23T11:37:58.998Z,98731.16
2022-09-23T11:40:35.851Z,98734.06
2022-09-23T11:43:15.713Z,98717.84
2022-09-23T11:45:51.670Z,98710.08
2022-09-23T11:48:29.113Z,98714.89
2022-09-23T11:51:05.072Z,98726.19
2022-09-23T11:53:44.624Z,98730.97
2022-09-23T11:56:31.918Z,98733.58
2022-09-23T11:59:01.348Z,98736.08
2022-09-23T12:01:38.185Z,98743.88
2022-09-23T12:04:20.377Z,98738.01
2022-09-23T12:06:49.692Z,98749.19
2022-09-23T12:09:47.253Z,98748.88
2022-09-23T12:12:03.719Z,98748.28
2022-09-23T12:14:40.337Z,98754.78
2022-09-23T12:17:27.631Z,98761.36
2022-09-23T12:20:09.296Z,98742.63
2022-09-23T12:22:50.981Z,98731.69
2022-09-23T12:25:43.217Z,98734.30
2022-09-23T12:28:20.328Z,98752.27
2022-09-23T12:30:55.892Z,98764.23
2022-09-23T12:33:31.193Z,98752.23
2022-09-23T12:36:08.089Z,98765.16
2022-09-23T12:38:42.666Z,98764.81
2022-09-23T12:41:31.792Z,98758.06
2022-09-23T12:44:16.883Z,98752.02
2022-09-23T12:46:50.192Z,98759.09
2022-09-23T12:49:28.238Z,98751.73
2022-09-23T12:52:26.122Z,98747.20
2022-09-23T12:55:01.519Z,98748.14
2022-09-23T12:57:43.692Z,98742.62
2022-09-23T13:00:33.530Z,98735.53
2022-09-23T13:03:20.973Z,98720.52
2022-09-23T13:06:14.397Z,98712.95
2022-09-23T13:08:48.993Z,98709.88
2022-09-23T13:11:23.876Z,98715.16
2022-09-23T13:14:00.121Z,98723.47
2022-09-23T13:16:37.173Z,98726.35
2022-09-23T13:19:15.314Z,98721.92
2022-09-23T13:22:09.390Z,98715.51
2022-09-23T13:24:48.455Z,98710.30
2022-09-23T13:27:26.952Z,98716.14
2022-09-23T13:30:07.613Z,98705.83
2022-09-23T13:32:43.975Z,98702.55
2022-09-23T13:35:22.854Z,98698.97
2022-09-23T13:37:56.395Z,98700.33
2022-09-23T13:40:31.822Z,98703.00
2022-09-23T13:43:06.538Z,98705.59
2022-09-23T13:45:43.374Z,98698.14
2022-09-23T13:48:17.786Z,98702.96
2022-09-23T13:50:53.447Z,98702.30
2022-09-23T13:53:29.732Z,98701.92
2022-09-23T13:56:06.174Z,98710.48
2022-09-23T13:58:39.530Z,98704.69
2022-09-23T14:01:20.456Z,98701.55
2022-09-23T14:03:53.439Z,98702.63
2022-09-23T14:06:27.779Z,98701.98
2022-09-23T14:09:03.022Z,98686.25
2022-09-23T14:11:37.591Z,98695.06
2022-09-23T14:14:14.939Z,98692.44
2022-09-23T14:16:49.843Z,98692.36
2022-09-23T14:19:25.207Z,98686.33
2022-09-23T14:21:59.724Z,98690.73
2022-09-23T14:24:36.996Z,98695.06
2022-09-23T14:27:13.768Z,98689.73
2022-09-23T14:29:49.498Z,98689.70
2022-09-23T14:32:25.973Z,98677.55
2022-09-23T14:35:17.090Z,98685.61
2022-09-23T14:38:10.423Z,98670.91
2022-09-23T14:40:56.377Z,98672.92
2022-09-23T14:43:30.512Z,98674.77
2022-09-23T14:46:03.484Z,98681.88
2022-09-23T14:48:37.816Z,98688.97
2022-09-23T14:51:17.198Z,98686.41
2022-09-23T14:53:49.497Z,98680.43
2022-09-23T14:56:25.438Z,98684.03
2022-09-23T14:59:00.142Z,98685.92
2022-09-23T15:01:40.538Z,98675.48
2022-09-23T15:04:18.281Z,98672.94
2022-09-23T15:06:57.177Z,98679.22
2022-09-23T15:09:33.069Z,98667.12
2022-09-23T15:12:09.215Z,98667.31
2022-09-23T15:14:46.636Z,98660.45
2022-09-23T15:17:29.563Z,98659.63
2022-09-23T15:20:05.186Z,98657.05
2022-09-23T15:22:46.057Z,98654.55
2022-09-23T15:25:22.589Z,98649.41
2022-09-23T15:28:05.893Z,98652.95
2022-09-23T15:30:40.642Z,98651.23
2022-09-23T15:33:16.573Z,98651.27
2022-09-23T15:35:50.565Z,98651.33
2022-09-23T15:38:24.363Z,98657.48
2022-09-23T15:40:57.538Z,98659.30
2022-09-23T15:43:30.583Z,98662.83
2022-09-23T15:46:07.570Z,98667.23
2022-09-23T15:48:43.886Z,98670.70
2022-09-23T15:51:19.664Z,98668.08
2022-09-23T15:53:54.221Z,98659.45
2022-09-23T15:56:27.857Z,98659.47
2022-09-23T15:59:00.976Z,98665.63
2022-09-23T16:01:36.826Z,98661.36
2022-09-23T16:04:12.069Z,98661.47
2022-09-23T16:06:45.496Z,98652.80
2022-09-23T16:09:18.779Z,98657.20
2022-09-23T16:11:52.052Z,98663.39
2022-09-23T16:14:25.382Z,98659.89
2022-09-23T16:16:58.415Z,98661.63
2022-09-23T16:19:33.058Z,98658.98
2022-09-23T16:22:07.004Z,98653.73
2022-09-23T16:24:41.413Z,98651.16
2022-09-23T16:27:17.291Z,98645.95
2022-09-23T16:29:53.352Z,98655.53
2022-09-23T16:32:26.634Z,98653.82
2022-09-23T16:34:59.782Z,98647.77
2022-09-23T16:37:35.148Z,98646.06
2022-09-23T16:40:10.269Z,98637.42
2022-09-23T16:42:46.655Z,98638.32
2022-09-23T16:45:23.251Z,98630.50
2022-09-23T16:47:56.574Z,98620.91
2022-09-23T16:50:29.916Z,98628.70
2022-09-23T16:53:02.926Z,98626.95
2022-09-23T16:55:36.103Z,98617.38
2022-09-23T16:58:09.017Z,98619.98
2022-09-23T17:00:59.395Z,98626.97
2022-09-23T17:03:41.604Z,98613.87
2022-09-23T17:06:15.273Z,98619.06
2022-09-23T17:08:49.105Z,98616.45
2022-09-23T17:11:23.110Z,98614.70
2022-09-23T17:13:56.221Z,98618.23
2022-09-23T17:16:31.312Z,98612.98
2022-09-23T17:19:08.816Z,98599.98
2022-09-23T17:21:42.797Z,98606.17
2022-09-23T17:24:16.985Z,98602.73
2022-09-23T17:26:53.603Z,98605.42
2022-09-23T17:29:28.823Z,98599.34
2022-09-23T17:32:01.967Z,98589.78
2022-09-23T17:34:35.012Z,98593.30
2022-09-23T17:37:10.714Z,98594.20
2022-09-23T17:39:45.547Z,98586.34
2022-09-23T17:42:19.528Z,98589.85
2022-09-23T17:44:52.571Z,98584.61
2022-09-23T17:47:29.110Z,98579.41
2022-09-23T17:50:03.074Z,98575.91
2022-09-23T17:52:36.273Z,98576.84
2022-09-23T17:55:12.184Z,98581.25
2022-09-23T17:57:45.076Z,98565.55
2022-09-23T18:00:18.433Z,98576.83
2022-09-23T18:02:53.416Z,98567.19
2022-09-23T18:05:26.348Z,98566.30
2022-09-23T18:08:01.872Z,98567.19
2022-09-23T18:10:34.055Z,98561.98
2022-09-23T18:13:06.923Z,98559.36
2022-09-23T18:15:42.617Z,98555.83
2022-09-23T18:18:15.578Z,98557.54
2022-09-23T18:20:48.867Z,98550.60
2022-09-23T18:23:26.013Z,98554.94
2022-09-23T18:25:56.476Z,98558.41
2022-09-23T18:28:34.875Z,98557.49
2022-09-23T18:31:06.437Z,98560.07
2022-09-23T18:33:39.734Z,98554.79
2022-09-23T18:36:12.912Z,98544.33
2022-09-23T18:38:47.063Z,98555.75
2022-09-23T18:41:20.975Z,98548.80
2022-09-23T18:43:54.185Z,98544.46
2022-09-23T18:46:29.605Z,98532.41
2022-09-23T18:49:19.928Z,98542.82
2022-09-23T18:52:00.190Z,98532.36
2022-09-23T18:54:33.114Z,98534.14
2022-09-23T18:57:06.094Z,98526.36
2022-09-23T18:59:40.207Z,98524.66
2022-09-23T19:02:14.706Z,98518.62
2022-09-23T19:04:47.658Z,98512.58
2022-09-23T19:07:20.529Z,98513.48
2022-09-23T19:09:53.471Z,98514.35
2022-09-23T19:12:26.565Z,98509.98
2022-09-23T19:14:59.484Z,98502.97
2022-09-23T19:17:34.250Z,98502.98
2022-09-23T19:20:08.870Z,98498.67
2022-09-23T19:22:48.119Z,98500.37
2022-09-23T19:25:21.030Z,98496.05
2022-09-23T19:27:53.963Z,98493.41
2022-09-23T19:30:27.516Z,98486.41
2022-09-23T19:33:00.515Z,98488.14
2022-09-23T19:35:34.292Z,98482.98
2022-09-23T19:38:07.349Z,98481.25
2022-09-23T19:40:40.325Z,98482.92
2022-09-23T19:43:14.327Z,98483.74
2022-09-23T19:45:48.651Z,98482.78
2022-09-23T19:48:21.998Z,98476.64
2022-09-23T19:50:55.011Z,98473.13
2022-09-23T19:53:28.411Z,98473.13
2022-09-23T19:56:05.101Z,98469.60
2022-09-23T19:58:39.164Z,98464.35
2022-09-23T20:01:12.758Z,98467.91
2022-09-23T20:03:47.431Z,98464.38
2022-09-23T20:06:21.647Z,98463.44
2022-09-23T20:08:56.577Z,98453.81
2022-09-23T20:11:31.704Z,98452.99
2022-09-23T20:14:06.667Z,98449.50
2022-09-23T20:16:40.597Z,98450.36
2022-09-23T20:19:27.180Z,98443.33
2022-09-23T20:22:18.997Z,98443.31
2022-09-23T20:24:51.863Z,98431.99
2022-09-23T20:27:24.898Z,98430.30
2022-09-23T20:29:57.938Z,98423.28
2022-09-23T20:32:31.078Z,98426.77
2022-09-23T20:35:04.251Z,98416.25
2022-09-23T20:37:37.480Z,98419.76
2022-09-23T20:40:11.488Z,98410.20
2022-09-23T20:42:44.324Z,98403.25
2022-09-23T20:45:17.756Z,98397.12
2022-09-23T20:47:50.587Z,98397.12
2022-09-23T20:50:23.426Z,98391.90
2022-09-23T20:52:56.427Z,98391.07
2022-09-23T20:55:30.154Z,98386.72
2022-09-23T20:58:03.566Z,98379.80
2022-09-23T21:00:36.800Z,98373.70
2022-09-23T21:03:10.440Z,98371.07
2022-09-23T21:05:43.266Z,98370.17
2022-09-23T21:08:17.768Z,98369.22
2022-09-23T21:10:57.207Z,98363.06
2022-09-23T21:13:30.031Z,98357.02
2022-09-23T21:16:06.419Z,98353.58
2022-09-23T21:18:39.314Z,98344.88
2022-09-23T21:21:14.238Z,98346.63
2022-09-23T21:23:47.657Z,98345.80
2022-09-23T21:26:23.298Z,98340.66
2022-09-23T21:28:58.817Z,98338.08
2022-09-23T21:31:34.364Z,98338.94
2022-09-23T21:34:09.480Z,98342.37
2022-09-23T21:36:44.371Z,98330.13
2022-09-23T21:39:17.337Z,98331.82
2022-09-23T21:41:51.574Z,98330.94
2022-09-23T21:44:25.606Z,98325.69
2022-09-23T21:46:59.488Z,98318.72
2022-09-23T21:50:28.347Z,98314.41
2022-09-23T21:53:01.391Z,98310.06
2022-09-23T21:55:34.359Z,98307.47
2022-09-23T21:58:07.243Z,98301.41
2022-09-23T22:00:41.902Z,98291.88
2022-09-23T22:03:14.779Z,98287.59
2022-09-23T22:05:47.744Z,98294.63
2022-09-23T22:08:20.631Z,98279.86
2022-09-23T22:10:53.521Z,98274.72
2022-09-23T22:13:27.544Z,98265.23
2022-09-23T22:16:08.955Z,98260.03
2022-09-23T22:18:42.245Z,98253.89
2022-09-23T22:24:01.199Z,98241.53
2022-09-23T22:26:36.300Z,98243.45
2022-09-23T22:29:29.208Z,98250.41
2022-09-23T22:32:23.608Z,98240.83
2022-09-23T22:34:56.628Z,98237.39
2022-09-23T22:37:33.210Z,98232.28
2022-09-23T22:40:08.773Z,98229.70
2022-09-23T22:42:42.348Z,98222.72
2022-09-23T22:45:15.576Z,98218.35
2022-09-23T22:47:48.951Z,98211.39
2022-09-23T22:50:21.938Z,98201.86
2022-09-23T22:52:54.781Z,98206.23
2022-09-23T22:55:28.217Z,98202.73
2022-09-23T22:58:15.291Z,98196.70
2022-09-23T23:00:37.035Z,98192.38
2022-09-23T23:03:09.905Z,98193.27
2022-09-23T23:05:42.821Z,98187.22
2022-09-23T23:08:17.262Z,98178.53
2022-09-23T23:10:50.923Z,98172.42
2022-09-23T23:13:24.747Z,98166.34
2022-09-23T23:15:59.020Z,98167.20
2022-09-23T23:18:35.102Z,98150.61
2022-09-23T23:21:13.762Z,98155.87
2022-09-23T23:23:48.679Z,98148.08
2022-09-23T23:26:23.803Z,98148.08
2022-09-23T23:28:57.480Z,98154.17
2022-09-23T23:31:32.902Z,98145.43
2022-09-23T23:34:06.151Z,98134.98
2022-09-23T23:36:39.614Z,98138.42
2022-09-23T23:39:13.254Z,98134.09
2022-09-23T23:41:46.081Z,98128.89
2022-09-23T23:44:19.151Z,98129.71
2022-09-23T23:46:52.234Z,98119.27
2022-09-23T23:49:25.773Z,98109.67
2022-09-23T23:51:58.645Z,98100.95
2022-09-23T23:54:33.149Z,98103.59
2022-09-23T23:57:06.137Z,98099.25
2022-09-23T23:59:38.969Z,98082.68
